Roessleville, New York
Current Conditions -  °F | °C
As of 6:51 AM on Wednesday 28 Jan 2015 (Local Time) from KALB Reporting Station
Light Snow Light Snow  
Wind Chill: -3°   Ceiling: 4300
Heat Index: 11°   Visibility: 10mi
Dew Point: -2°   Wind: 10mph
Humidity: 56%   Direction: 340°NNW
Pressure: 30.05"   Gusts: NA
Location:  42.7187°N, 73.8257°W
Report Text: KALB 281151Z 34009KT 10SM -SN OVC043 M12/M19 A3005 RMK AO2 SNB28 SLP181 PCPN VRY LGT 4/006 P0000 60000 70023 T11171189 11094 21117 51042
Loading
Personal Weather Stations






























Interactive Weather Map New forecast layout! Learn more

10-Day Weather Forecast

Advertisements
Track Severe Weather on mobile